Alanreed, TX (79002)

11:41 AM CDT on September 16, 2014 (GMT -0500)
HADS LEFORS WEATHER STATION TX US USGS | Change Station
CLOSE
Current Station
Personal Weather Station
Location: Lefors, TX
Elevation: 2798 ft
Nearby Weather Stations

Elev 2798 ft 35.44 °N, 100.81 °W | Updated 41 minutes ago

Overcast
Overcast
66 °F
Feels Like 66 °F
N
2
Wind Variable Wind from SSE
Gusts 0.0 mph

Today
High -- | Low -- °F
--% Chance of Precip.
Yesterday
High -- | Low -- °F
Precip. -- in
7:26 AM 7:48 PM
Last Quarter, 44% visible
Pressure 30.24 in
Visibility 10.0 miles
Clouds Mostly Cloudy 700 ft
Dew Point 61 °F
Humidity 84%
Rainfall 0.00 in
Snow Depth Not available.
UV 4 out of 12
Pollen 8.90 out of 12
Air Quality Not available.
Flu Activity Not available.
METAR KPPA 161635Z AUTO 28004KT 10SM BKN007 19/15 A3024 RMK AO2 T01860149

More Conditions Fewer Conditions

Pressure 30.24 in
Visibility 10.0 miles
Clouds Mostly Cloudy 700 ft
Dew Point 61 °F
Humidity 84%
Rainfall 0.00 in
Snow Depth Not available.
UV 4 out of 12
Pollen 8.90 out of 12
Air Quality Not available.
Flu Activity Not available.
METAR KPPA 161635Z AUTO 28004KT 10SM BKN007 19/15 A3024 RMK AO2 T01860149

More Conditions Fewer Conditions

10-Day Weather Forecast

Almanac

Astronomy

Sep. 16, 2014 Rise Set
Actual Time 7:26 AM CDT 7:48 PM CDT
Civil Twilight 7:01 AM CDT 8:13 PM CDT
Nautical Twilight 6:31 AM CDT 8:43 PM CDT
Astronomical Twilight 6:00 AM CDT 9:14 PM CDT
Moon 12:46 AM CDT 3:04 PM CDT
Length of Visible Light 13h 12m
Length of Day
12h 21m
Tomorrow will be 2m 12s shorter.
Last Quarter, 44% of the Moon is Illuminated
Today
Last Quarter
Sep 24
New
Oct 1
First Quarter
Oct 8
Full
Oct 15
Last Quarter

Today's Extremes

State Highs State Lows

Community

WunderPhotos

Upload Photos

1,753,830 photos uploaded!

Nearby

Snow Depth

Station Depth Elevation
No new snow has been reported.

Earthquake Activity

City Distance Mag. Time & Date
No recent earthquake activity has been reported nearby.
Minimum magnitude displayed is 2.5.

Coastal Water Temperatures

Place Temperature
No Stations Reporting

Nearby Weather Stations